sensor_id;sensor_type;location;lat;lon;timestamp;P1;durP1;ratioP1;P2;durP2;ratioP2
18140;SDS011;9196;49.194;12.526;2022-11-20T00:01:27;35.90;;;24.98;;
18140;SDS011;9196;49.194;12.526;2022-11-20T00:03:54;34.20;;;21.73;;
18140;SDS011;9196;49.194;12.526;2022-11-20T00:06:25;39.53;;;23.90;;
18140;SDS011;9196;49.194;12.526;2022-11-20T00:08:53;37.42;;;22.48;;
18140;SDS011;9196;49.194;12.526;2022-11-20T00:11:22;33.33;;;20.65;;
18140;SDS011;9196;49.194;12.526;2022-11-20T00:13:51;32.75;;;22.20;;
18140;SDS011;9196;49.194;12.526;2022-11-20T00:16:20;36.83;;;24.13;;
18140;SDS011;9196;49.194;12.526;2022-11-20T00:18:49;33.38;;;22.85;;
18140;SDS011;9196;49.194;12.526;2022-11-20T00:21:17;33.53;;;23.30;;
18140;SDS011;9196;49.194;12.526;2022-11-20T00:23:47;31.33;;;22.88;;
18140;SDS011;9196;49.194;12.526;2022-11-20T00:26:15;36.13;;;22.92;;
18140;SDS011;9196;49.194;12.526;2022-11-20T00:28:44;35.88;;;22.80;;
18140;SDS011;9196;49.194;12.526;2022-11-20T00:31:15;38.65;;;24.55;;
18140;SDS011;9196;49.194;12.526;2022-11-20T00:33:43;37.92;;;23.67;;
18140;SDS011;9196;49.194;12.526;2022-11-20T00:36:11;34.90;;;22.05;;
18140;SDS011;9196;49.194;12.526;2022-11-20T00:38:39;34.13;;;23.48;;
18140;SDS011;9196;49.194;12.526;2022-11-20T00:41:08;32.00;;;22.40;;
18140;SDS011;9196;49.194;12.526;2022-11-20T00:43:37;38.53;;;23.77;;
18140;SDS011;9196;49.194;12.526;2022-11-20T00:46:13;34.03;;;23.55;;
18140;SDS011;9196;49.194;12.526;2022-11-20T00:48:41;36.08;;;24.13;;
18140;SDS011;9196;49.194;12.526;2022-11-20T00:51:08;34.35;;;22.85;;
18140;SDS011;9196;49.194;12.526;2022-11-20T00:53:37;33.78;;;22.30;;
18140;SDS011;9196;49.194;12.526;2022-11-20T00:56:05;35.60;;;22.27;;
18140;SDS011;9196;49.194;12.526;2022-11-20T00:58:36;39.22;;;24.60;;
18140;SDS011;9196;49.194;12.526;2022-11-20T01:01:04;36.63;;;23.73;;
18140;SDS011;9196;49.194;12.526;2022-11-20T01:03:33;37.53;;;24.25;;
18140;SDS011;9196;49.194;12.526;2022-11-20T01:06:01;33.80;;;22.50;;
18140;SDS011;9196;49.194;12.526;2022-11-20T01:08:29;33.53;;;21.52;;
18140;SDS011;9196;49.194;12.526;2022-11-20T01:11:00;32.90;;;21.17;;
18140;SDS011;9196;49.194;12.526;2022-11-20T01:13:30;37.67;;;23.58;;
18140;SDS011;9196;49.194;12.526;2022-11-20T01:16:03;33.08;;;22.27;;
18140;SDS011;9196;49.194;12.526;2022-11-20T01:18:31;39.03;;;23.52;;
18140;SDS011;9196;49.194;12.526;2022-11-20T01:21:00;32.70;;;21.63;;
18140;SDS011;9196;49.194;12.526;2022-11-20T01:23:30;36.53;;;22.10;;
18140;SDS011;9196;49.194;12.526;2022-11-20T01:25:58;36.05;;;21.40;;
18140;SDS011;9196;49.194;12.526;2022-11-20T01:28:26;41.70;;;23.20;;
18140;SDS011;9196;49.194;12.526;2022-11-20T01:30:55;33.20;;;22.17;;
18140;SDS011;9196;49.194;12.526;2022-11-20T01:33:22;32.72;;;21.25;;
18140;SDS011;9196;49.194;12.526;2022-11-20T01:35:49;37.58;;;23.60;;
18140;SDS011;9196;49.194;12.526;2022-11-20T01:38:16;35.53;;;22.55;;
18140;SDS011;9196;49.194;12.526;2022-11-20T01:40:43;34.00;;;22.15;;
18140;SDS011;9196;49.194;12.526;2022-11-20T01:43:12;33.28;;;21.35;;
18140;SDS011;9196;49.194;12.526;2022-11-20T01:48:42;35.17;;;21.17;;
18140;SDS011;9196;49.194;12.526;2022-11-20T01:51:18;34.67;;;22.90;;
18140;SDS011;9196;49.194;12.526;2022-11-20T01:53:50;35.92;;;22.35;;
18140;SDS011;9196;49.194;12.526;2022-11-20T01:56:19;36.13;;;23.58;;
18140;SDS011;9196;49.194;12.526;2022-11-20T01:58:48;36.60;;;23.60;;
18140;SDS011;9196;49.194;12.526;2022-11-20T02:01:19;33.20;;;22.05;;
18140;SDS011;9196;49.194;12.526;2022-11-20T02:03:47;32.60;;;23.58;;
18140;SDS011;9196;49.194;12.526;2022-11-20T02:06:17;36.38;;;21.80;;
18140;SDS011;9196;49.194;12.526;2022-11-20T02:08:49;37.45;;;24.38;;
18140;SDS011;9196;49.194;12.526;2022-11-20T02:11:17;40.47;;;24.00;;
18140;SDS011;9196;49.194;12.526;2022-11-20T02:13:44;36.13;;;23.60;;
18140;SDS011;9196;49.194;12.526;2022-11-20T02:16:12;39.58;;;22.90;;
18140;SDS011;9196;49.194;12.526;2022-11-20T02:18:42;37.00;;;22.40;;
18140;SDS011;9196;49.194;12.526;2022-11-20T02:21:13;36.63;;;23.00;;
18140;SDS011;9196;49.194;12.526;2022-11-20T02:24:04;33.75;;;22.40;;
18140;SDS011;9196;49.194;12.526;2022-11-20T02:26:34;30.75;;;21.10;;
18140;SDS011;9196;49.194;12.526;2022-11-20T02:29:05;39.97;;;23.52;;
18140;SDS011;9196;49.194;12.526;2022-11-20T02:31:36;35.67;;;22.58;;
18140;SDS011;9196;49.194;12.526;2022-11-20T02:34:04;34.22;;;21.90;;
18140;SDS011;9196;49.194;12.526;2022-11-20T02:36:31;35.97;;;22.30;;
18140;SDS011;9196;49.194;12.526;2022-11-20T02:39:00;34.08;;;22.20;;
18140;SDS011;9196;49.194;12.526;2022-11-20T02:41:33;33.95;;;22.10;;
18140;SDS011;9196;49.194;12.526;2022-11-20T02:44:01;36.85;;;23.40;;
18140;SDS011;9196;49.194;12.526;2022-11-20T02:46:29;37.67;;;20.13;;
18140;SDS011;9196;49.194;12.526;2022-11-20T02:48:56;37.00;;;23.42;;
18140;SDS011;9196;49.194;12.526;2022-11-20T02:51:23;36.25;;;23.58;;
18140;SDS011;9196;49.194;12.526;2022-11-20T02:53:50;31.25;;;19.85;;
18140;SDS011;9196;49.194;12.526;2022-11-20T02:56:17;38.90;;;22.27;;
18140;SDS011;9196;49.194;12.526;2022-11-20T02:58:45;34.10;;;23.63;;
18140;SDS011;9196;49.194;12.526;2022-11-20T03:01:12;42.58;;;22.27;;
18140;SDS011;9196;49.194;12.526;2022-11-20T03:03:39;36.88;;;22.52;;
18140;SDS011;9196;49.194;12.526;2022-11-20T03:06:06;37.30;;;21.98;;
18140;SDS011;9196;49.194;12.526;2022-11-20T03:08:33;35.03;;;21.88;;
18140;SDS011;9196;49.194;12.526;2022-11-20T03:11:04;30.80;;;21.52;;
18140;SDS011;9196;49.194;12.526;2022-11-20T03:13:32;35.25;;;21.75;;
18140;SDS011;9196;49.194;12.526;2022-11-20T03:16:05;33.90;;;22.58;;
18140;SDS011;9196;49.194;12.526;2022-11-20T03:18:33;32.72;;;20.85;;
18140;SDS011;9196;49.194;12.526;2022-11-20T03:21:00;35.13;;;22.15;;
18140;SDS011;9196;49.194;12.526;2022-11-20T03:23:28;36.58;;;21.40;;
18140;SDS011;9196;49.194;12.526;2022-11-20T03:25:56;36.60;;;22.70;;
18140;SDS011;9196;49.194;12.526;2022-11-20T03:28:33;35.08;;;22.95;;
18140;SDS011;9196;49.194;12.526;2022-11-20T03:31:05;39.95;;;23.02;;
18140;SDS011;9196;49.194;12.526;2022-11-20T03:33:33;32.58;;;21.80;;
18140;SDS011;9196;49.194;12.526;2022-11-20T03:36:00;37.45;;;24.25;;
18140;SDS011;9196;49.194;12.526;2022-11-20T03:38:28;35.35;;;22.35;;
18140;SDS011;9196;49.194;12.526;2022-11-20T03:40:57;37.83;;;23.45;;
18140;SDS011;9196;49.194;12.526;2022-11-20T03:43:25;33.90;;;22.63;;
18140;SDS011;9196;49.194;12.526;2022-11-20T03:45:52;35.90;;;23.95;;
18140;SDS011;9196;49.194;12.526;2022-11-20T03:48:20;37.35;;;23.90;;
18140;SDS011;9196;49.194;12.526;2022-11-20T03:50:47;38.25;;;24.05;;
18140;SDS011;9196;49.194;12.526;2022-11-20T03:53:14;33.83;;;22.65;;
18140;SDS011;9196;49.194;12.526;2022-11-20T03:55:41;36.38;;;23.60;;
18140;SDS011;9196;49.194;12.526;2022-11-20T03:58:08;31.75;;;21.80;;
18140;SDS011;9196;49.194;12.526;2022-11-20T04:00:36;35.17;;;22.98;;
18140;SDS011;9196;49.194;12.526;2022-11-20T04:03:03;35.75;;;24.13;;
18140;SDS011;9196;49.194;12.526;2022-11-20T04:05:32;36.85;;;23.80;;
18140;SDS011;9196;49.194;12.526;2022-11-20T04:07:59;40.50;;;24.00;;
18140;SDS011;9196;49.194;12.526;2022-11-20T04:10:26;36.30;;;22.70;;
18140;SDS011;9196;49.194;12.526;2022-11-20T04:12:53;41.28;;;24.17;;
18140;SDS011;9196;49.194;12.526;2022-11-20T04:15:20;42.38;;;25.10;;
18140;SDS011;9196;49.194;12.526;2022-11-20T04:17:46;38.22;;;24.33;;
18140;SDS011;9196;49.194;12.526;2022-11-20T04:20:13;37.25;;;24.33;;
18140;SDS011;9196;49.194;12.526;2022-11-20T04:22:42;37.85;;;25.63;;
18140;SDS011;9196;49.194;12.526;2022-11-20T04:25:08;41.40;;;23.67;;
18140;SDS011;9196;49.194;12.526;2022-11-20T04:27:35;42.25;;;25.90;;
18140;SDS011;9196;49.194;12.526;2022-11-20T04:30:02;39.97;;;23.15;;
18140;SDS011;9196;49.194;12.526;2022-11-20T04:32:29;43.90;;;24.73;;
18140;SDS011;9196;49.194;12.526;2022-11-20T04:34:56;37.75;;;23.05;;
18140;SDS011;9196;49.194;12.526;2022-11-20T04:37:23;38.65;;;24.02;;
18140;SDS011;9196;49.194;12.526;2022-11-20T04:39:51;36.85;;;24.20;;
18140;SDS011;9196;49.194;12.526;2022-11-20T04:42:18;37.17;;;23.58;;
18140;SDS011;9196;49.194;12.526;2022-11-20T04:44:57;37.55;;;24.15;;
18140;SDS011;9196;49.194;12.526;2022-11-20T04:47:24;38.28;;;24.92;;
18140;SDS011;9196;49.194;12.526;2022-11-20T04:49:50;42.00;;;24.83;;
18140;SDS011;9196;49.194;12.526;2022-11-20T04:52:17;35.03;;;22.48;;
18140;SDS011;9196;49.194;12.526;2022-11-20T04:54:44;38.75;;;24.60;;
18140;SDS011;9196;49.194;12.526;2022-11-20T04:57:14;40.08;;;25.33;;
18140;SDS011;9196;49.194;12.526;2022-11-20T04:59:41;32.45;;;21.92;;
18140;SDS011;9196;49.194;12.526;2022-11-20T05:02:08;35.58;;;22.00;;
18140;SDS011;9196;49.194;12.526;2022-11-20T05:04:35;43.08;;;26.67;;
18140;SDS011;9196;49.194;12.526;2022-11-20T05:07:02;37.72;;;24.20;;
18140;SDS011;9196;49.194;12.526;2022-11-20T05:09:29;34.88;;;23.17;;
18140;SDS011;9196;49.194;12.526;2022-11-20T05:11:56;36.00;;;21.60;;
18140;SDS011;9196;49.194;12.526;2022-11-20T05:14:24;36.83;;;22.60;;
18140;SDS011;9196;49.194;12.526;2022-11-20T05:16:51;38.70;;;25.55;;
18140;SDS011;9196;49.194;12.526;2022-11-20T05:19:18;36.67;;;24.30;;
18140;SDS011;9196;49.194;12.526;2022-11-20T05:21:45;39.75;;;24.60;;
18140;SDS011;9196;49.194;12.526;2022-11-20T05:24:11;35.97;;;23.73;;
18140;SDS011;9196;49.194;12.526;2022-11-20T05:26:38;41.25;;;23.73;;
18140;SDS011;9196;49.194;12.526;2022-11-20T05:29:05;42.35;;;26.23;;
18140;SDS011;9196;49.194;12.526;2022-11-20T05:31:33;39.38;;;24.80;;
18140;SDS011;9196;49.194;12.526;2022-11-20T05:34:01;38.85;;;24.33;;
18140;SDS011;9196;49.194;12.526;2022-11-20T05:36:28;38.13;;;24.15;;
18140;SDS011;9196;49.194;12.526;2022-11-20T05:38:55;41.03;;;24.75;;
18140;SDS011;9196;49.194;12.526;2022-11-20T05:41:22;57.85;;;32.15;;
18140;SDS011;9196;49.194;12.526;2022-11-20T05:43:49;37.70;;;24.58;;
18140;SDS011;9196;49.194;12.526;2022-11-20T05:46:17;44.58;;;26.52;;
18140;SDS011;9196;49.194;12.526;2022-11-20T05:48:46;36.85;;;24.48;;
18140;SDS011;9196;49.194;12.526;2022-11-20T05:51:14;42.00;;;26.08;;
18140;SDS011;9196;49.194;12.526;2022-11-20T05:53:42;37.65;;;25.23;;
18140;SDS011;9196;49.194;12.526;2022-11-20T05:56:10;40.72;;;24.48;;
18140;SDS011;9196;49.194;12.526;2022-11-20T05:58:37;38.38;;;24.38;;
18140;SDS011;9196;49.194;12.526;2022-11-20T06:01:05;39.22;;;23.45;;
18140;SDS011;9196;49.194;12.526;2022-11-20T06:03:33;40.65;;;23.85;;
18140;SDS011;9196;49.194;12.526;2022-11-20T06:06:02;45.47;;;26.48;;
18140;SDS011;9196;49.194;12.526;2022-11-20T06:08:30;36.25;;;23.83;;
18140;SDS011;9196;49.194;12.526;2022-11-20T06:10:57;36.72;;;24.45;;
18140;SDS011;9196;49.194;12.526;2022-11-20T06:13:24;35.25;;;22.92;;
18140;SDS011;9196;49.194;12.526;2022-11-20T06:15:51;39.88;;;23.75;;
18140;SDS011;9196;49.194;12.526;2022-11-20T06:18:19;37.75;;;23.38;;
18140;SDS011;9196;49.194;12.526;2022-11-20T06:20:47;37.40;;;23.13;;
18140;SDS011;9196;49.194;12.526;2022-11-20T06:23:15;33.70;;;22.27;;
18140;SDS011;9196;49.194;12.526;2022-11-20T06:25:43;39.13;;;25.98;;
18140;SDS011;9196;49.194;12.526;2022-11-20T06:28:09;56.33;;;26.52;;
18140;SDS011;9196;49.194;12.526;2022-11-20T06:30:36;46.08;;;25.58;;
18140;SDS011;9196;49.194;12.526;2022-11-20T06:33:03;38.17;;;23.65;;
18140;SDS011;9196;49.194;12.526;2022-11-20T06:35:30;41.53;;;25.58;;
18140;SDS011;9196;49.194;12.526;2022-11-20T06:37:57;45.25;;;24.85;;
18140;SDS011;9196;49.194;12.526;2022-11-20T06:40:25;38.50;;;24.77;;
18140;SDS011;9196;49.194;12.526;2022-11-20T06:42:53;37.72;;;24.50;;
18140;SDS011;9196;49.194;12.526;2022-11-20T06:45:20;40.95;;;26.83;;
18140;SDS011;9196;49.194;12.526;2022-11-20T06:47:47;43.63;;;25.35;;
18140;SDS011;9196;49.194;12.526;2022-11-20T06:50:14;41.50;;;26.70;;
18140;SDS011;9196;49.194;12.526;2022-11-20T06:52:41;42.28;;;25.65;;
18140;SDS011;9196;49.194;12.526;2022-11-20T06:55:08;49.10;;;29.33;;
18140;SDS011;9196;49.194;12.526;2022-11-20T06:57:36;59.08;;;33.05;;
18140;SDS011;9196;49.194;12.526;2022-11-20T07:00:03;52.92;;;30.38;;
18140;SDS011;9196;49.194;12.526;2022-11-20T07:02:31;54.10;;;29.63;;
18140;SDS011;9196;49.194;12.526;2022-11-20T07:04:58;52.63;;;27.50;;
18140;SDS011;9196;49.194;12.526;2022-11-20T07:07:25;52.33;;;29.40;;
18140;SDS011;9196;49.194;12.526;2022-11-20T07:09:51;54.55;;;31.27;;
18140;SDS011;9196;49.194;12.526;2022-11-20T07:12:18;47.55;;;29.00;;
18140;SDS011;9196;49.194;12.526;2022-11-20T07:14:46;42.42;;;27.17;;
18140;SDS011;9196;49.194;12.526;2022-11-20T07:17:13;42.13;;;25.50;;
18140;SDS011;9196;49.194;12.526;2022-11-20T07:19:40;39.42;;;26.00;;
18140;SDS011;9196;49.194;12.526;2022-11-20T07:22:08;43.70;;;27.85;;
18140;SDS011;9196;49.194;12.526;2022-11-20T07:24:34;45.00;;;28.00;;
18140;SDS011;9196;49.194;12.526;2022-11-20T07:27:01;54.67;;;32.53;;
18140;SDS011;9196;49.194;12.526;2022-11-20T07:29:29;45.28;;;28.90;;
18140;SDS011;9196;49.194;12.526;2022-11-20T07:31:57;53.35;;;30.98;;
18140;SDS011;9196;49.194;12.526;2022-11-20T07:34:24;42.22;;;28.88;;
18140;SDS011;9196;49.194;12.526;2022-11-20T07:36:51;44.22;;;27.73;;
18140;SDS011;9196;49.194;12.526;2022-11-20T07:39:18;43.40;;;26.98;;
18140;SDS011;9196;49.194;12.526;2022-11-20T07:41:44;43.80;;;27.13;;
18140;SDS011;9196;49.194;12.526;2022-11-20T07:44:11;39.58;;;26.98;;
18140;SDS011;9196;49.194;12.526;2022-11-20T07:46:38;49.75;;;26.45;;
18140;SDS011;9196;49.194;12.526;2022-11-20T07:49:06;45.47;;;27.67;;
18140;SDS011;9196;49.194;12.526;2022-11-20T07:51:33;45.78;;;27.48;;
18140;SDS011;9196;49.194;12.526;2022-11-20T07:54:00;54.78;;;30.98;;
18140;SDS011;9196;49.194;12.526;2022-11-20T07:56:27;45.65;;;28.15;;
18140;SDS011;9196;49.194;12.526;2022-11-20T07:58:54;45.67;;;27.63;;
18140;SDS011;9196;49.194;12.526;2022-11-20T08:01:20;42.80;;;26.85;;
18140;SDS011;9196;49.194;12.526;2022-11-20T08:03:47;41.85;;;26.85;;
18140;SDS011;9196;49.194;12.526;2022-11-20T08:06:15;50.30;;;31.60;;
18140;SDS011;9196;49.194;12.526;2022-11-20T08:08:43;43.95;;;28.30;;
18140;SDS011;9196;49.194;12.526;2022-11-20T08:11:10;55.80;;;33.45;;
18140;SDS011;9196;49.194;12.526;2022-11-20T08:13:54;61.42;;;40.47;;
18140;SDS011;9196;49.194;12.526;2022-11-20T08:16:39;49.30;;;31.08;;
18140;SDS011;9196;49.194;12.526;2022-11-20T08:19:07;43.22;;;28.73;;
18140;SDS011;9196;49.194;12.526;2022-11-20T08:21:35;47.65;;;30.67;;
18140;SDS011;9196;49.194;12.526;2022-11-20T08:24:02;51.47;;;30.20;;
18140;SDS011;9196;49.194;12.526;2022-11-20T08:26:30;72.97;;;45.90;;
18140;SDS011;9196;49.194;12.526;2022-11-20T08:28:57;72.20;;;48.22;;
18140;SDS011;9196;49.194;12.526;2022-11-20T08:31:25;58.03;;;39.13;;
18140;SDS011;9196;49.194;12.526;2022-11-20T08:33:53;55.45;;;33.88;;
18140;SDS011;9196;49.194;12.526;2022-11-20T08:36:20;53.38;;;30.83;;
18140;SDS011;9196;49.194;12.526;2022-11-20T08:38:49;42.33;;;27.52;;
18140;SDS011;9196;49.194;12.526;2022-11-20T08:41:17;43.25;;;28.60;;
18140;SDS011;9196;49.194;12.526;2022-11-20T08:43:51;41.75;;;28.63;;
18140;SDS011;9196;49.194;12.526;2022-11-20T08:46:18;45.05;;;28.70;;
18140;SDS011;9196;49.194;12.526;2022-11-20T08:48:45;56.10;;;29.42;;
18140;SDS011;9196;49.194;12.526;2022-11-20T08:51:13;41.63;;;26.63;;
18140;SDS011;9196;49.194;12.526;2022-11-20T08:53:39;42.08;;;25.35;;
18140;SDS011;9196;49.194;12.526;2022-11-20T08:56:08;40.70;;;28.60;;
18140;SDS011;9196;49.194;12.526;2022-11-20T08:58:35;45.13;;;28.00;;
18140;SDS011;9196;49.194;12.526;2022-11-20T09:01:03;42.35;;;27.73;;
18140;SDS011;9196;49.194;12.526;2022-11-20T09:03:30;36.95;;;24.38;;
18140;SDS011;9196;49.194;12.526;2022-11-20T09:05:57;39.72;;;26.55;;
18140;SDS011;9196;49.194;12.526;2022-11-20T09:08:25;43.25;;;28.48;;
18140;SDS011;9196;49.194;12.526;2022-11-20T09:10:52;46.42;;;29.55;;
18140;SDS011;9196;49.194;12.526;2022-11-20T09:13:21;41.25;;;28.58;;
18140;SDS011;9196;49.194;12.526;2022-11-20T09:15:52;46.60;;;28.52;;
18140;SDS011;9196;49.194;12.526;2022-11-20T09:18:19;51.92;;;31.25;;
18140;SDS011;9196;49.194;12.526;2022-11-20T09:20:46;43.70;;;28.05;;
18140;SDS011;9196;49.194;12.526;2022-11-20T09:23:14;48.03;;;28.38;;
18140;SDS011;9196;49.194;12.526;2022-11-20T09:25:41;48.28;;;28.50;;
18140;SDS011;9196;49.194;12.526;2022-11-20T09:28:08;49.10;;;30.02;;
18140;SDS011;9196;49.194;12.526;2022-11-20T09:30:36;43.38;;;29.52;;
18140;SDS011;9196;49.194;12.526;2022-11-20T09:33:04;56.58;;;28.92;;
18140;SDS011;9196;49.194;12.526;2022-11-20T09:35:31;45.55;;;29.50;;
18140;SDS011;9196;49.194;12.526;2022-11-20T09:37:57;59.78;;;37.42;;
18140;SDS011;9196;49.194;12.526;2022-11-20T09:40:25;65.18;;;37.00;;
18140;SDS011;9196;49.194;12.526;2022-11-20T09:42:55;43.08;;;26.70;;
18140;SDS011;9196;49.194;12.526;2022-11-20T09:45:30;42.17;;;27.70;;
18140;SDS011;9196;49.194;12.526;2022-11-20T09:48:22;45.00;;;28.45;;
18140;SDS011;9196;49.194;12.526;2022-11-20T09:50:58;60.45;;;33.20;;
18140;SDS011;9196;49.194;12.526;2022-11-20T09:53:33;58.25;;;36.85;;
18140;SDS011;9196;49.194;12.526;2022-11-20T09:56:09;69.82;;;42.72;;
18140;SDS011;9196;49.194;12.526;2022-11-20T09:58:38;57.28;;;37.58;;
18140;SDS011;9196;49.194;12.526;2022-11-20T10:01:11;54.33;;;35.05;;
18140;SDS011;9196;49.194;12.526;2022-11-20T10:03:42;55.00;;;33.28;;
18140;SDS011;9196;49.194;12.526;2022-11-20T10:06:18;56.15;;;35.03;;
18140;SDS011;9196;49.194;12.526;2022-11-20T10:08:50;51.47;;;31.17;;
18140;SDS011;9196;49.194;12.526;2022-11-20T10:11:25;54.33;;;33.45;;
18140;SDS011;9196;49.194;12.526;2022-11-20T10:14:03;59.25;;;35.83;;
18140;SDS011;9196;49.194;12.526;2022-11-20T10:16:44;50.13;;;31.10;;
18140;SDS011;9196;49.194;12.526;2022-11-20T10:19:27;51.50;;;31.08;;
18140;SDS011;9196;49.194;12.526;2022-11-20T10:22:04;54.67;;;32.78;;
18140;SDS011;9196;49.194;12.526;2022-11-20T10:24:48;57.13;;;29.98;;
18140;SDS011;9196;49.194;12.526;2022-11-20T10:27:25;69.88;;;36.72;;
18140;SDS011;9196;49.194;12.526;2022-11-20T10:30:07;62.70;;;37.78;;
18140;SDS011;9196;49.194;12.526;2022-11-20T10:32:38;34.65;;;23.27;;
18140;SDS011;9196;49.194;12.526;2022-11-20T10:35:09;37.28;;;24.80;;
18140;SDS011;9196;49.194;12.526;2022-11-20T10:37:44;36.83;;;24.02;;
18140;SDS011;9196;49.194;12.526;2022-11-20T10:40:18;33.78;;;19.90;;
18140;SDS011;9196;49.194;12.526;2022-11-20T10:42:50;29.08;;;19.75;;
18140;SDS011;9196;49.194;12.526;2022-11-20T10:45:21;29.40;;;18.98;;
18140;SDS011;9196;49.194;12.526;2022-11-20T10:48:07;17.10;;;12.60;;
18140;SDS011;9196;49.194;12.526;2022-11-20T10:50:43;35.65;;;23.25;;
18140;SDS011;9196;49.194;12.526;2022-11-20T10:53:23;33.78;;;22.42;;
18140;SDS011;9196;49.194;12.526;2022-11-20T10:56:08;41.78;;;24.98;;
18140;SDS011;9196;49.194;12.526;2022-11-20T10:58:45;27.55;;;17.10;;
18140;SDS011;9196;49.194;12.526;2022-11-20T11:01:21;10.85;;;8.88;;
18140;SDS011;9196;49.194;12.526;2022-11-20T11:03:49;11.63;;;8.65;;
18140;SDS011;9196;49.194;12.526;2022-11-20T11:06:19;8.18;;;7.38;;
18140;SDS011;9196;49.194;12.526;2022-11-20T11:08:53;12.18;;;8.88;;
18140;SDS011;9196;49.194;12.526;2022-11-20T11:11:21;7.45;;;6.65;;
18140;SDS011;9196;49.194;12.526;2022-11-20T11:13:50;9.00;;;7.55;;
18140;SDS011;9196;49.194;12.526;2022-11-20T11:16:21;12.88;;;8.70;;
18140;SDS011;9196;49.194;12.526;2022-11-20T11:18:50;13.27;;;11.38;;
18140;SDS011;9196;49.194;12.526;2022-11-20T11:21:21;15.10;;;11.57;;
18140;SDS011;9196;49.194;12.526;2022-11-20T11:23:57;8.70;;;7.90;;
18140;SDS011;9196;49.194;12.526;2022-11-20T11:26:25;9.68;;;7.78;;
18140;SDS011;9196;49.194;12.526;2022-11-20T11:28:53;7.20;;;6.55;;
18140;SDS011;9196;49.194;12.526;2022-11-20T11:31:22;6.88;;;6.10;;
18140;SDS011;9196;49.194;12.526;2022-11-20T11:33:51;5.68;;;5.22;;
18140;SDS011;9196;49.194;12.526;2022-11-20T11:36:19;6.28;;;5.78;;
18140;SDS011;9196;49.194;12.526;2022-11-20T11:38:50;6.00;;;5.50;;
18140;SDS011;9196;49.194;12.526;2022-11-20T11:41:20;5.70;;;5.15;;
18140;SDS011;9196;49.194;12.526;2022-11-20T11:43:51;5.60;;;5.20;;
18140;SDS011;9196;49.194;12.526;2022-11-20T11:46:37;7.05;;;6.35;;
18140;SDS011;9196;49.194;12.526;2022-11-20T11:49:16;6.07;;;5.57;;
18140;SDS011;9196;49.194;12.526;2022-11-20T11:51:54;5.75;;;5.35;;
18140;SDS011;9196;49.194;12.526;2022-11-20T11:54:29;5.30;;;4.82;;
18140;SDS011;9196;49.194;12.526;2022-11-20T11:57:01;7.18;;;6.47;;
18140;SDS011;9196;49.194;12.526;2022-11-20T11:59:33;7.40;;;6.80;;
18140;SDS011;9196;49.194;12.526;2022-11-20T12:02:15;6.55;;;5.50;;
18140;SDS011;9196;49.194;12.526;2022-11-20T12:04:59;5.82;;;5.28;;
18140;SDS011;9196;49.194;12.526;2022-11-20T12:07:34;6.10;;;5.60;;
18140;SDS011;9196;49.194;12.526;2022-11-20T12:10:08;7.18;;;5.90;;
18140;SDS011;9196;49.194;12.526;2022-11-20T12:12:44;7.22;;;5.45;;
18140;SDS011;9196;49.194;12.526;2022-11-20T12:15:16;6.50;;;5.00;;
18140;SDS011;9196;49.194;12.526;2022-11-20T12:17:55;5.90;;;5.43;;
18140;SDS011;9196;49.194;12.526;2022-11-20T12:20:24;5.95;;;5.55;;
18140;SDS011;9196;49.194;12.526;2022-11-20T12:22:56;6.35;;;5.85;;
18140;SDS011;9196;49.194;12.526;2022-11-20T12:25:32;8.27;;;5.38;;
18140;SDS011;9196;49.194;12.526;2022-11-20T12:28:11;6.00;;;5.25;;
18140;SDS011;9196;49.194;12.526;2022-11-20T12:30:49;5.70;;;5.03;;
18140;SDS011;9196;49.194;12.526;2022-11-20T12:36:33;7.05;;;5.60;;
18140;SDS011;9196;49.194;12.526;2022-11-20T12:42:04;6.78;;;5.57;;
18140;SDS011;9196;49.194;12.526;2022-11-20T12:45:02;5.65;;;5.13;;
18140;SDS011;9196;49.194;12.526;2022-11-20T12:51:11;5.57;;;5.10;;
18140;SDS011;9196;49.194;12.526;2022-11-20T12:57:21;6.10;;;5.65;;
18140;SDS011;9196;49.194;12.526;2022-11-20T13:00:02;5.28;;;4.88;;
18140;SDS011;9196;49.194;12.526;2022-11-20T13:02:44;7.25;;;5.60;;
18140;SDS011;9196;49.194;12.526;2022-11-20T13:05:35;5.00;;;4.60;;
18140;SDS011;9196;49.194;12.526;2022-11-20T13:08:08;5.22;;;4.93;;
18140;SDS011;9196;49.194;12.526;2022-11-20T13:10:46;5.30;;;4.90;;
18140;SDS011;9196;49.194;12.526;2022-11-20T13:13:18;4.28;;;3.95;;
18140;SDS011;9196;49.194;12.526;2022-11-20T13:15:53;4.50;;;4.10;;
18140;SDS011;9196;49.194;12.526;2022-11-20T13:18:24;5.50;;;5.03;;
18140;SDS011;9196;49.194;12.526;2022-11-20T13:20:52;4.75;;;4.40;;
18140;SDS011;9196;49.194;12.526;2022-11-20T13:23:25;5.15;;;4.75;;
18140;SDS011;9196;49.194;12.526;2022-11-20T13:26:03;5.40;;;4.90;;
18140;SDS011;9196;49.194;12.526;2022-11-20T13:28:32;4.22;;;3.83;;
18140;SDS011;9196;49.194;12.526;2022-11-20T13:30:59;5.88;;;5.30;;
18140;SDS011;9196;49.194;12.526;2022-11-20T13:33:27;6.63;;;5.45;;
18140;SDS011;9196;49.194;12.526;2022-11-20T13:35:57;5.90;;;5.18;;
18140;SDS011;9196;49.194;12.526;2022-11-20T13:38:25;30.45;;;19.63;;
18140;SDS011;9196;49.194;12.526;2022-11-20T13:40:53;7.10;;;6.03;;
18140;SDS011;9196;49.194;12.526;2022-11-20T13:43:33;3.38;;;3.10;;
18140;SDS011;9196;49.194;12.526;2022-11-20T13:46:02;2.70;;;2.55;;
18140;SDS011;9196;49.194;12.526;2022-11-20T13:48:31;2.85;;;2.65;;
18140;SDS011;9196;49.194;12.526;2022-11-20T13:51:04;2.97;;;2.80;;
18140;SDS011;9196;49.194;12.526;2022-11-20T13:53:44;2.60;;;2.50;;
18140;SDS011;9196;49.194;12.526;2022-11-20T13:56:24;2.90;;;2.70;;
18140;SDS011;9196;49.194;12.526;2022-11-20T13:59:07;2.50;;;2.30;;
18140;SDS011;9196;49.194;12.526;2022-11-20T14:01:47;2.53;;;2.33;;
18140;SDS011;9196;49.194;12.526;2022-11-20T14:04:15;2.47;;;2.38;;
18140;SDS011;9196;49.194;12.526;2022-11-20T14:06:53;2.30;;;2.20;;
18140;SDS011;9196;49.194;12.526;2022-11-20T14:09:27;1.65;;;1.65;;
18140;SDS011;9196;49.194;12.526;2022-11-20T14:11:55;1.63;;;1.52;;
18140;SDS011;9196;49.194;12.526;2022-11-20T14:14:24;5.47;;;3.05;;
18140;SDS011;9196;49.194;12.526;2022-11-20T14:16:52;1.70;;;1.65;;
18140;SDS011;9196;49.194;12.526;2022-11-20T14:19:30;2.40;;;2.30;;
18140;SDS011;9196;49.194;12.526;2022-11-20T14:22:08;3.85;;;3.17;;
18140;SDS011;9196;49.194;12.526;2022-11-20T14:24:41;2.15;;;2.05;;
18140;SDS011;9196;49.194;12.526;2022-11-20T14:27:11;3.55;;;2.70;;
18140;SDS011;9196;49.194;12.526;2022-11-20T14:29:41;6.28;;;3.75;;
18140;SDS011;9196;49.194;12.526;2022-11-20T14:32:10;2.47;;;2.38;;
18140;SDS011;9196;49.194;12.526;2022-11-20T14:34:41;3.33;;;3.10;;
18140;SDS011;9196;49.194;12.526;2022-11-20T14:37:10;3.13;;;2.92;;
18140;SDS011;9196;49.194;12.526;2022-11-20T14:39:40;3.10;;;2.90;;
18140;SDS011;9196;49.194;12.526;2022-11-20T14:42:14;3.78;;;3.22;;
18140;SDS011;9196;49.194;12.526;2022-11-20T14:44:43;3.17;;;2.88;;
18140;SDS011;9196;49.194;12.526;2022-11-20T14:47:11;4.03;;;3.60;;
18140;SDS011;9196;49.194;12.526;2022-11-20T14:49:41;3.63;;;3.30;;
18140;SDS011;9196;49.194;12.526;2022-11-20T14:52:11;4.88;;;4.30;;
18140;SDS011;9196;49.194;12.526;2022-11-20T14:54:49;3.85;;;3.55;;
18140;SDS011;9196;49.194;12.526;2022-11-20T14:57:20;2.80;;;2.60;;
18140;SDS011;9196;49.194;12.526;2022-11-20T15:00:02;3.78;;;3.47;;
18140;SDS011;9196;49.194;12.526;2022-11-20T15:02:30;2.33;;;2.22;;